Airfield :
LOGIN :

Register | Disclaimer

   EN    FR    IT 

 










Legend :    VFR   Marginal VFR   IFR   Intensive IFR   Very Intensive IFR
Visi :
Ceiling :
>= 8 km
>= 3000ft
5 to 8 km
1000 to 3000 ft
1500m to 5 km
500 to 1000 ft
800 to 1500m
200 to 500 ft
< 800m
< 200 ft
Symbols :   Thunderstorms  Fog  Heavy snow  Heavy precipitations  Wind > 20 kt
SIGMETs :     Misc.  Thunderstorms  Icing  Turbulence  Mountain Waves  Volcanic Ashes






- Airport Elevation : 330 ft
- IATA code : LVA


LFOV - Laval-Entrammes

CURRENT METAR :
  • 241330Z AUTO 09004KT 0450 FG VV/// 02/02 Q1021

EXPIRED METARs :
  • 241300Z AUTO 07005KT 030V110 0400 FG VV/// 02/02 Q1021
  • 241230Z AUTO 11006KT 0500 0450 FG VV/// 02/02 Q1022
  • 241200Z AUTO 10006KT 0500 FG VV/// 02/02 Q1022
  • 241130Z AUTO 09005KT 0600 FG VV/// 02/02 Q1022
  • 241100Z AUTO 09005KT 1200 BR OVC003 01/01 Q1022

TAF N/A



MET'MAP, your aeronautical weather chart ! - Copyright ORBIFLY December 2007 - Disclaimer

ORBIFLY MET'MAP TEAM :

Programming & Development : Alexandra Zaïnal
Concept & original design : Baudouin d'Aumeries
Assistance for programming : Marc-Olivier Méhu
Technical & hardware support : Manuel Goepfert

Contact : metmap@orbifly.com




SOURCES & CREDITS :

   NOAA